Time;durP1;ratioP1;P1;durP2;ratioP2;P2;SDS_P1;SDS_P2;PMS_P1;PMS_P2;Temp;Humidity;BMP_temperature;BMP_pressure;BME280_temperature;BME280_humidity;BME280_pressure;Samples;Min_cycle;Max_cycle;Signal;HPM_P1;HPM_P2
2022/06/22 00:01:06;;;;;;;;;;;20.20;39.90;;;;;;6218628;23;19982;-89
2022/06/22 00:03:32;;;;;;;;;;;20.30;39.80;;;;;;6218808;23;19908;-89
2022/06/22 00:05:58;;;;;;;;;;;20.30;39.90;;;;;;6220142;23;20287;-89
2022/06/22 00:08:33;;;;;;;;;;;20.30;39.90;;;;;;6217125;23;19955;-89
2022/06/22 00:11:03;;;;;;;;;;;20.40;39.90;;;;;;6219377;23;19964;-89
2022/06/22 00:13:29;;;;;;;;;;;20.40;39.80;;;;;;6220019;23;19962;-89
2022/06/22 00:16:00;;;;;;;;;;;20.50;39.70;;;;;;6243382;23;20313;-89
2022/06/22 00:18:38;;;;;;;;;;;20.50;39.60;;;;;;6269097;22;20240;-89
2022/06/22 00:21:06;;;;;;;;;;;20.60;39.60;;;;;;6218097;23;20305;-89
2022/06/22 00:23:38;;;;;;;;;;;20.60;39.60;;;;;;6218187;23;19990;-89
2022/06/22 00:26:18;;;;;;;;;;;20.60;39.60;;;;;;6219776;23;20264;-89
2022/06/22 00:29:04;;;;;;;;;;;20.60;39.60;;;;;;6243769;23;19983;-89
2022/06/22 00:31:35;;;;;;;;;;;20.60;39.60;;;;;;6218723;23;19912;-89
2022/06/22 00:34:04;;;;;;;;;;;20.60;39.90;;;;;;6218388;23;19910;-89
2022/06/22 00:36:35;;;;;;;;;;;20.60;40.20;;;;;;6218822;23;19991;-89
2022/06/22 00:39:18;;;;;;;;;;;20.60;40.10;;;;;;6217851;23;20309;-89
2022/06/22 00:41:46;;;;;;;;;;;20.60;40.10;;;;;;6217709;23;19920;-90
2022/06/22 00:44:12;;;;;;;;;;;20.60;40.40;;;;;;6218143;23;20335;-90
2022/06/22 00:46:43;;;;;;;;;;;20.60;40.30;;;;;;6219676;23;19958;-89
2022/06/22 00:49:10;;;;;;;;;;;20.60;40.40;;;;;;6218916;23;19904;-89
2022/06/22 00:51:37;;;;;;;;;;;20.60;40.50;;;;;;6217672;22;19912;-89
2022/06/22 00:54:05;;;;;;;;;;;20.60;40.60;;;;;;6216638;23;19923;-89
2022/06/22 00:56:36;;;;;;;;;;;20.60;40.70;;;;;;6217555;23;20289;-88
2022/06/22 00:59:19;;;;;;;;;;;20.60;40.80;;;;;;6217713;23;20321;-89
2022/06/22 01:02:03;;;;;;;;;;;20.60;40.90;;;;;;6217803;23;19916;-89
2022/06/22 01:04:39;;;;;;;;;;;20.50;41.10;;;;;;6216797;23;19923;-89
2022/06/22 01:07:14;;;;;;;;;;;20.50;41.20;;;;;;6217035;23;19943;-89
2022/06/22 01:09:58;;;;;;;;;;;20.50;41.20;;;;;;6218225;23;19912;-89
2022/06/22 01:12:31;;;;;;;;;;;20.50;41.20;;;;;;6218399;23;19912;-89
2022/06/22 01:15:00;;;;;;;;;;;20.50;41.40;;;;;;6217165;23;19982;-89
2022/06/22 01:17:50;;;;;;;;;;;20.40;41.50;;;;;;6217975;23;19915;-89
2022/06/22 01:20:34;;;;;;;;;;;20.40;41.30;;;;;;6217813;23;20381;-89
2022/06/22 01:23:18;;;;;;;;;;;20.30;41.30;;;;;;6218323;23;19904;-89
2022/06/22 01:25:49;;;;;;;;;;;20.30;41.40;;;;;;6218809;23;19908;-89
2022/06/22 01:28:15;;;;;;;;;;;20.30;41.70;;;;;;6219412;23;19904;-89
2022/06/22 01:30:47;;;;;;;;;;;20.30;41.60;;;;;;6217310;23;19940;-89
2022/06/22 01:33:42;;;;;;;;;;;20.30;41.70;;;;;;6217213;23;19915;-89
2022/06/22 01:36:19;;;;;;;;;;;20.30;41.80;;;;;;6198669;23;19919;-89
2022/06/22 01:38:44;;;;;;;;;;;20.30;42.10;;;;;;6156533;23;19989;-89
2022/06/22 01:41:10;;;;;;;;;;;20.20;42.40;;;;;;6155984;23;19923;-89
2022/06/22 01:43:43;;;;;;;;;;;20.20;42.30;;;;;;6169492;23;19907;-90
2022/06/22 01:46:12;;;;;;;;;;;20.10;42.40;;;;;;6219912;23;19912;-89
2022/06/22 01:48:39;;;;;;;;;;;20.00;42.70;;;;;;6217716;23;19910;-90
2022/06/22 01:51:12;;;;;;;;;;;19.90;42.70;;;;;;6216077;23;19908;-90
2022/06/22 01:53:48;;;;;;;;;;;19.80;43.00;;;;;;6217167;23;19918;-89
2022/06/22 01:56:29;;;;;;;;;;;19.70;43.40;;;;;;6217441;23;19904;-89
2022/06/22 01:59:15;;;;;;;;;;;19.70;43.50;;;;;;6218552;23;19908;-88
2022/06/22 02:02:00;;;;;;;;;;;19.60;43.60;;;;;;6218194;23;20249;-88
2022/06/22 02:04:33;;;;;;;;;;;19.50;43.50;;;;;;6217481;23;19908;-89
2022/06/22 02:09:55;;;;;;;;;;;19.30;43.60;;;;;;6219443;23;19954;-89
2022/06/22 02:12:27;;;;;;;;;;;19.20;43.90;;;;;;6217100;23;19939;-89
2022/06/22 02:14:55;;;;;;;;;;;19.10;44.20;;;;;;6188192;23;19912;-89
2022/06/22 02:17:24;;;;;;;;;;;19.10;44.10;;;;;;6186162;23;19915;-89
2022/06/22 02:20:09;;;;;;;;;;;19.00;44.00;;;;;;6188913;23;19912;-88
2022/06/22 02:22:34;;;;;;;;;;;19.00;43.90;;;;;;6187123;23;20376;-89
2022/06/22 02:25:00;;;;;;;;;;;18.90;43.80;;;;;;6213351;23;19904;-89
2022/06/22 02:27:29;;;;;;;;;;;18.80;43.70;;;;;;6188302;23;19919;-89
2022/06/22 02:29:59;;;;;;;;;;;18.70;43.70;;;;;;6187982;23;19904;-89
2022/06/22 02:32:28;;;;;;;;;;;18.60;43.90;;;;;;6188721;23;19948;-89
2022/06/22 02:34:59;;;;;;;;;;;18.50;43.90;;;;;;6188631;23;19996;-89
2022/06/22 02:37:27;;;;;;;;;;;18.50;44.20;;;;;;6189259;23;19956;-89
2022/06/22 02:39:57;;;;;;;;;;;18.40;44.40;;;;;;6188795;23;20241;-89
2022/06/22 02:45:08;;;;;;;;;;;18.30;45.20;;;;;;6190226;23;19939;-89
2022/06/22 02:47:43;;;;;;;;;;;18.20;45.60;;;;;;6188939;23;19927;-89
2022/06/22 02:50:27;;;;;;;;;;;18.20;45.60;;;;;;6189387;23;19899;-89
2022/06/22 02:52:57;;;;;;;;;;;18.20;45.50;;;;;;6190090;23;19912;-89
2022/06/22 02:55:25;;;;;;;;;;;18.10;46.10;;;;;;6189043;23;19905;-89
2022/06/22 02:57:53;;;;;;;;;;;18.00;46.00;;;;;;6189083;23;19897;-89
2022/06/22 03:00:24;;;;;;;;;;;18.00;45.80;;;;;;6216242;23;19908;-89
2022/06/22 03:02:50;;;;;;;;;;;18.00;45.70;;;;;;6220183;23;19916;-87
2022/06/22 03:05:17;;;;;;;;;;;17.90;45.40;;;;;;6193049;23;19904;-89
2022/06/22 03:07:46;;;;;;;;;;;17.80;45.30;;;;;;6217825;23;19908;-90
2022/06/22 03:10:24;;;;;;;;;;;17.80;45.30;;;;;;6220341;23;20424;-90
2022/06/22 03:12:49;;;;;;;;;;;17.80;45.30;;;;;;6220199;23;19908;-90
2022/06/22 03:15:18;;;;;;;;;;;17.80;45.60;;;;;;6192640;23;19999;-90
2022/06/22 03:17:44;;;;;;;;;;;17.70;46.50;;;;;;6192957;23;19908;-91
2022/06/22 03:20:14;;;;;;;;;;;17.70;46.70;;;;;;6193922;23;19912;-90
2022/06/22 03:22:45;;;;;;;;;;;17.70;46.60;;;;;;6193149;23;19908;-90
2022/06/22 03:25:14;;;;;;;;;;;17.80;46.80;;;;;;6219582;23;19904;-90
2022/06/22 03:27:41;;;;;;;;;;;17.80;46.90;;;;;;6218661;23;19912;-89
2022/06/22 03:30:12;;;;;;;;;;;18.00;47.10;;;;;;6193310;23;19908;-90
2022/06/22 03:32:47;;;;;;;;;;;18.10;47.20;;;;;;6193222;23;19904;-90
2022/06/22 03:35:17;;;;;;;;;;;18.30;47.30;;;;;;6219523;23;19912;-90
2022/06/22 03:37:45;;;;;;;;;;;18.50;47.40;;;;;;6219846;23;19916;-90
2022/06/22 03:40:15;;;;;;;;;;;18.70;47.30;;;;;;6191978;23;19908;-90
2022/06/22 03:42:51;;;;;;;;;;;18.90;47.10;;;;;;6193184;23;19991;-91
2022/06/22 03:45:23;;;;;;;;;;;19.00;46.50;;;;;;6193367;23;19958;-91
2022/06/22 03:47:55;;;;;;;;;;;19.10;46.00;;;;;;6194381;23;19990;-90
2022/06/22 03:50:29;;;;;;;;;;;19.00;45.70;;;;;;6218538;23;19908;-90
2022/06/22 03:53:01;;;;;;;;;;;19.00;45.40;;;;;;6219169;23;19912;-90
2022/06/22 03:55:30;;;;;;;;;;;18.90;45.20;;;;;;6220299;23;19912;-90
2022/06/22 03:57:55;;;;;;;;;;;18.80;45.40;;;;;;6218178;23;19954;-91
2022/06/22 04:00:22;;;;;;;;;;;18.80;45.60;;;;;;6193263;23;19908;-90
2022/06/22 04:02:48;;;;;;;;;;;18.70;46.00;;;;;;6220437;23;20226;-91
2022/06/22 04:05:18;;;;;;;;;;;18.60;45.90;;;;;;6218876;23;19931;-91
2022/06/22 04:07:45;;;;;;;;;;;18.50;45.90;;;;;;6217018;23;19914;-91
2022/06/22 04:10:25;;;;;;;;;;;18.50;45.90;;;;;;6218141;23;19908;-90
2022/06/22 04:12:51;;;;;;;;;;;18.40;45.90;;;;;;6220150;23;19995;-90
2022/06/22 04:15:23;;;;;;;;;;;18.30;46.00;;;;;;6194117;23;19912;-91
2022/06/22 04:17:51;;;;;;;;;;;18.30;46.20;;;;;;6218827;23;19992;-90
2022/06/22 04:20:49;;;;;;;;;;;18.30;46.30;;;;;;6195772;23;19951;-90
2022/06/22 04:23:21;;;;;;;;;;;18.30;46.50;;;;;;6193372;23;19896;-90
2022/06/22 04:25:47;;;;;;;;;;;18.60;47.40;;;;;;6193643;23;19911;-90
2022/06/22 04:28:14;;;;;;;;;;;19.00;48.80;;;;;;6193119;23;20276;-91
2022/06/22 04:30:48;;;;;;;;;;;19.60;49.50;;;;;;6218819;23;19911;-90
2022/06/22 04:33:17;;;;;;;;;;;20.20;49.70;;;;;;6191777;23;19919;-90
2022/06/22 04:35:46;;;;;;;;;;;20.80;49.60;;;;;;6192813;23;19908;-91
2022/06/22 04:38:22;;;;;;;;;;;21.50;49.10;;;;;;6193302;23;20248;-91
2022/06/22 04:41:07;;;;;;;;;;;22.30;48.30;;;;;;6193303;23;19995;-91
2022/06/22 04:43:33;;;;;;;;;;;23.00;47.30;;;;;;6218874;23;19916;-91
2022/06/22 04:45:59;;;;;;;;;;;23.70;46.50;;;;;;6221203;23;19915;-91
2022/06/22 04:48:35;;;;;;;;;;;24.30;45.80;;;;;;6243355;23;19920;-90
2022/06/22 04:51:02;;;;;;;;;;;24.90;45.00;;;;;;6194380;23;19912;-90
2022/06/22 04:53:36;;;;;;;;;;;25.60;44.30;;;;;;6193279;23;19908;-90
2022/06/22 04:56:05;;;;;;;;;;;26.20;43.40;;;;;;6218704;23;19986;-90
2022/06/22 04:58:41;;;;;;;;;;;26.70;42.30;;;;;;6194071;23;19908;-90
2022/06/22 05:01:11;;;;;;;;;;;27.20;41.50;;;;;;6243801;23;19916;-91
2022/06/22 05:03:36;;;;;;;;;;;27.80;40.70;;;;;;6219062;23;19911;-90
2022/06/22 05:06:06;;;;;;;;;;;28.30;39.90;;;;;;6192604;23;20115;-90
2022/06/22 05:08:39;;;;;;;;;;;28.80;39.00;;;;;;6191815;23;19915;-90
2022/06/22 05:11:14;;;;;;;;;;;29.20;38.10;;;;;;6168164;23;19912;-91
2022/06/22 05:13:47;;;;;;;;;;;29.70;37.40;;;;;;6217947;23;19918;-91
2022/06/22 05:16:15;;;;;;;;;;;30.10;35.90;;;;;;6192886;23;19920;-91
2022/06/22 05:18:42;;;;;;;;;;;30.40;34.90;;;;;;6194621;23;19907;-91
2022/06/22 05:21:10;;;;;;;;;;;30.80;34.30;;;;;;6193923;23;19912;-91
2022/06/22 05:23:36;;;;;;;;;;;31.10;34.00;;;;;;6219334;23;20286;-91
2022/06/22 05:26:04;;;;;;;;;;;31.40;33.30;;;;;;6194281;23;19915;-91
2022/06/22 05:28:33;;;;;;;;;;;31.70;33.10;;;;;;6194557;23;19927;-91
2022/06/22 05:31:04;;;;;;;;;;;32.10;32.50;;;;;;6220527;23;19908;-90
2022/06/22 05:33:29;;;;;;;;;;;32.40;31.40;;;;;;6218572;23;19912;-91
2022/06/22 05:35:58;;;;;;;;;;;32.70;30.50;;;;;;6194838;23;20350;-90
2022/06/22 05:38:24;;;;;;;;;;;32.90;29.80;;;;;;6194497;23;19912;-91
2022/06/22 05:40:50;;;;;;;;;;;33.20;28.30;;;;;;6219309;23;19916;-91
2022/06/22 05:43:19;;;;;;;;;;;33.30;27.90;;;;;;6218734;23;20049;-91
2022/06/22 05:45:50;;;;;;;;;;;33.40;27.20;;;;;;6193124;23;19935;-90
2022/06/22 05:48:17;;;;;;;;;;;33.60;27.40;;;;;;6221023;23;20200;-90
2022/06/22 05:51:03;;;;;;;;;;;33.80;27.50;;;;;;6220314;23;20296;-90
2022/06/22 05:53:35;;;;;;;;;;;34.10;27.30;;;;;;6192916;23;19943;-90
2022/06/22 05:56:04;;;;;;;;;;;34.40;26.60;;;;;;6195523;23;19994;-91
2022/06/22 05:58:33;;;;;;;;;;;34.60;25.90;;;;;;6221258;23;20222;-90
2022/06/22 06:01:00;;;;;;;;;;;34.80;25.90;;;;;;6224081;23;20388;-91
2022/06/22 06:03:46;;;;;;;;;;;35.00;25.80;;;;;;6196265;23;19991;-91
2022/06/22 06:06:19;;;;;;;;;;;35.20;25.10;;;;;;6194118;23;19928;-91
2022/06/22 06:08:51;;;;;;;;;;;35.40;24.50;;;;;;6194092;23;19947;-91
2022/06/22 06:11:18;;;;;;;;;;;35.50;24.20;;;;;;6222147;23;19904;-91
2022/06/22 06:13:49;;;;;;;;;;;35.60;23.80;;;;;;6195139;23;19908;-90
2022/06/22 06:16:19;;;;;;;;;;;35.70;24.00;;;;;;6194624;23;20312;-91
2022/06/22 06:18:45;;;;;;;;;;;35.90;23.80;;;;;;6195315;23;19916;-92
2022/06/22 06:21:15;;;;;;;;;;;36.00;23.60;;;;;;6195379;23;19912;-91
2022/06/22 06:23:41;;;;;;;;;;;36.30;23.70;;;;;;6194333;23;19965;-91
2022/06/22 06:29:10;;;;;;;;;;;36.80;23.40;;;;;;6227265;23;19935;-91
2022/06/22 06:31:47;;;;;;;;;;;37.10;23.40;;;;;;6201013;23;19964;-91
2022/06/22 06:34:16;;;;;;;;;;;37.30;22.80;;;;;;6196305;23;19908;-91
2022/06/22 06:36:52;;;;;;;;;;;37.50;22.80;;;;;;6197517;23;19908;-92
2022/06/22 06:39:20;;;;;;;;;;;37.80;22.50;;;;;;6171299;23;19909;-92
2022/06/22 06:42:03;;;;;;;;;;;37.90;22.20;;;;;;6220927;23;19928;-93
2022/06/22 06:44:30;;;;;;;;;;;38.10;22.10;;;;;;6193024;23;19955;-90
2022/06/22 06:47:00;;;;;;;;;;;38.50;22.10;;;;;;6194603;23;19908;-91
2022/06/22 06:49:34;;;;;;;;;;;38.90;21.90;;;;;;6193424;23;19916;-90
2022/06/22 06:52:02;;;;;;;;;;;39.20;21.30;;;;;;6193339;23;20241;-90
2022/06/22 06:54:31;;;;;;;;;;;39.50;21.00;;;;;;6217882;23;19912;-90
2022/06/22 06:57:16;;;;;;;;;;;39.70;20.20;;;;;;6192617;23;19924;-90
2022/06/22 06:59:45;;;;;;;;;;;39.60;19.30;;;;;;6192579;23;19916;-90
2022/06/22 07:02:19;;;;;;;;;;;39.30;19.30;;;;;;6220218;23;19964;-91
2022/06/22 07:04:45;;;;;;;;;;;39.20;19.70;;;;;;6218424;23;19992;-90
2022/06/22 07:07:31;;;;;;;;;;;39.30;19.50;;;;;;6193567;23;19904;-90
2022/06/22 07:09:58;;;;;;;;;;;39.20;19.30;;;;;;6195152;23;19896;-90
2022/06/22 07:12:39;;;;;;;;;;;39.10;19.40;;;;;;6194587;23;19919;-90
2022/06/22 07:15:05;;;;;;;;;;;38.90;19.50;;;;;;6194426;23;19908;-89
2022/06/22 07:17:32;;;;;;;;;;;38.80;19.50;;;;;;6193403;23;19912;-90
2022/06/22 07:20:13;;;;;;;;;;;38.80;19.20;;;;;;6217744;23;19986;-89
2022/06/22 07:22:41;;;;;;;;;;;38.80;19.40;;;;;;6218059;23;19912;-90
2022/06/22 07:25:12;;;;;;;;;;;39.10;19.50;;;;;;6167358;23;19908;-90
2022/06/22 07:27:50;;;;;;;;;;;39.00;19.00;;;;;;6192269;23;19915;-90
2022/06/22 07:30:37;;;;;;;;;;;39.00;18.80;;;;;;6219679;23;19908;-90
2022/06/22 07:33:09;;;;;;;;;;;38.80;18.80;;;;;;6218788;23;19954;-90
2022/06/22 07:35:56;;;;;;;;;;;38.80;18.60;;;;;;6219832;23;19955;-90
2022/06/22 07:38:40;;;;;;;;;;;38.90;18.70;;;;;;6217730;23;19936;-90
2022/06/22 07:41:18;;;;;;;;;;;38.90;18.80;;;;;;6217223;23;19916;-90
2022/06/22 07:43:45;;;;;;;;;;;38.90;18.70;;;;;;6218431;23;19941;-90
2022/06/22 07:46:14;;;;;;;;;;;39.10;18.60;;;;;;6191470;23;19946;-90
2022/06/22 07:48:42;;;;;;;;;;;39.20;18.30;;;;;;6219655;23;19986;-90
2022/06/22 07:51:16;;;;;;;;;;;39.10;18.40;;;;;;6193182;23;19912;-90
2022/06/22 07:53:46;;;;;;;;;;;39.00;18.60;;;;;;6192639;23;19934;-90
2022/06/22 07:56:12;;;;;;;;;;;39.20;18.60;;;;;;6193003;23;19908;-89
2022/06/22 07:58:56;;;;;;;;;;;39.30;18.40;;;;;;6218362;23;19908;-90
2022/06/22 08:01:29;;;;;;;;;;;39.20;18.20;;;;;;6194275;23;19919;-90
2022/06/22 08:04:16;;;;;;;;;;;39.30;18.40;;;;;;6220422;23;19908;-90
2022/06/22 08:06:44;;;;;;;;;;;39.50;18.40;;;;;;6193763;23;20039;-91
2022/06/22 08:09:39;;;;;;;;;;;39.70;18.20;;;;;;6220477;23;20303;-93
2022/06/22 08:12:16;;;;;;;;;;;40.00;18.00;;;;;;6200990;23;19908;-93
2022/06/22 08:14:45;;;;;;;;;;;40.10;17.70;;;;;;6221715;23;19912;-93
2022/06/22 08:17:24;;;;;;;;;;;40.20;17.70;;;;;;6195649;23;19934;-92
2022/06/22 08:19:50;;;;;;;;;;;40.40;17.40;;;;;;6195100;23;20026;-91
2022/06/22 08:22:15;;;;;;;;;;;40.60;17.50;;;;;;6194465;23;19920;-91
2022/06/22 08:24:45;;;;;;;;;;;40.80;17.30;;;;;;6221159;23;19931;-91
2022/06/22 08:27:19;;;;;;;;;;;40.80;17.20;;;;;;6219496;23;19908;-92
2022/06/22 08:29:45;;;;;;;;;;;41.00;17.00;;;;;;6220123;23;19907;-91
2022/06/22 08:32:17;;;;;;;;;;;41.00;16.80;;;;;;6218524;23;20538;-92
2022/06/22 08:34:45;;;;;;;;;;;41.20;16.90;;;;;;6218697;23;19912;-92
2022/06/22 08:37:12;;;;;;;;;;;41.40;16.40;;;;;;6192155;23;19958;-92
2022/06/22 08:39:42;;;;;;;;;;;41.50;16.40;;;;;;6194119;23;19916;-92
2022/06/22 08:42:27;;;;;;;;;;;41.60;16.00;;;;;;6193306;23;19892;-92
2022/06/22 08:44:55;;;;;;;;;;;41.50;16.00;;;;;;6191228;23;19919;-93
2022/06/22 08:47:30;;;;;;;;;;;41.30;15.90;;;;;;6217398;23;19916;-91
2022/06/22 08:49:56;;;;;;;;;;;41.30;16.00;;;;;;6219124;23;19908;-91
2022/06/22 08:52:27;;;;;;;;;;;41.30;15.80;;;;;;6220280;23;20418;-91
2022/06/22 08:54:53;;;;;;;;;;;41.10;16.00;;;;;;6220962;23;19912;-92
2022/06/22 08:57:27;;;;;;;;;;;40.90;15.90;;;;;;6217872;23;19911;-93
2022/06/22 09:00:05;;;;;;;;;;;40.80;15.90;;;;;;6218162;23;20352;-92
2022/06/22 09:02:34;;;;;;;;;;;40.50;16.00;;;;;;6243736;23;20302;-89
2022/06/22 09:04:59;;;;;;;;;;;40.20;16.00;;;;;;6219708;23;19915;-90
2022/06/22 09:07:31;;;;;;;;;;;39.90;16.20;;;;;;6223479;23;20305;-90
2022/06/22 09:10:06;;;;;;;;;;;39.60;16.40;;;;;;6224623;23;19916;-90
2022/06/22 09:12:34;;;;;;;;;;;39.50;16.70;;;;;;6195365;23;19904;-91
2022/06/22 09:15:15;;;;;;;;;;;39.10;16.60;;;;;;6206218;23;19912;-91
2022/06/22 09:18:00;;;;;;;;;;;38.70;16.80;;;;;;6222513;23;19951;-90
2022/06/22 09:20:44;;;;;;;;;;;38.40;17.20;;;;;;6224025;23;19930;-91
2022/06/22 09:23:25;;;;;;;;;;;38.30;17.50;;;;;;6197656;23;19911;-91
2022/06/22 09:26:03;;;;;;;;;;;38.30;17.70;;;;;;6248078;23;19958;-91
2022/06/22 09:28:43;;;;;;;;;;;38.60;17.70;;;;;;6220715;23;19908;-91
2022/06/22 09:31:18;;;;;;;;;;;38.80;17.30;;;;;;6197201;23;19915;-90
2022/06/22 09:33:56;;;;;;;;;;;38.90;17.30;;;;;;6226908;23;19908;-92
2022/06/22 09:36:21;;;;;;;;;;;39.00;17.00;;;;;;6228338;23;19908;-91
2022/06/22 09:39:06;;;;;;;;;;;39.10;16.80;;;;;;6218148;23;19911;-91
2022/06/22 09:41:50;;;;;;;;;;;39.20;16.80;;;;;;6218176;23;19916;-91
2022/06/22 09:44:34;;;;;;;;;;;39.20;17.00;;;;;;6217693;23;19896;-91
2022/06/22 09:47:11;;;;;;;;;;;39.30;16.80;;;;;;6216497;23;19915;-90
2022/06/22 09:49:55;;;;;;;;;;;39.60;16.60;;;;;;6193843;23;19915;-92
2022/06/22 09:52:39;;;;;;;;;;;39.80;16.20;;;;;;6220568;23;19943;-92
2022/06/22 09:58:04;;;;;;;;;;;39.90;15.90;;;;;;6219209;23;19962;-94
2022/06/22 10:00:41;;;;;;;;;;;39.70;16.10;;;;;;6216805;23;20424;-91
2022/06/22 10:03:21;;;;;;;;;;;39.80;16.30;;;;;;6221170;23;19912;-95
2022/06/22 10:05:56;;;;;;;;;;;40.10;16.30;;;;;;6246683;23;19908;-95
2022/06/22 10:10:58;;;;;;;;;;;40.70;15.50;;;;;;6221662;23;19918;-94
2022/06/22 10:13:29;;;;;;;;;;;40.70;15.30;;;;;;6193630;23;19911;-93
2022/06/22 10:16:06;;;;;;;;;;;40.80;15.40;;;;;;6219730;23;19927;-95
2022/06/22 10:18:46;;;;;;;;;;;41.20;15.30;;;;;;6194060;23;20314;-95
2022/06/22 10:21:34;;;;;;;;;;;41.30;14.50;;;;;;6194957;23;19916;-94
2022/06/22 10:24:05;;;;;;;;;;;41.40;14.50;;;;;;6220202;23;20336;-93
2022/06/22 10:26:30;;;;;;;;;;;41.70;14.70;;;;;;6218968;23;19907;-94
2022/06/22 10:29:05;;;;;;;;;;;42.40;14.80;;;;;;6220929;23;19912;-93
2022/06/22 10:31:34;;;;;;;;;;;42.70;14.20;;;;;;6221338;23;20309;-95
2022/06/22 10:34:18;;;;;;;;;;;42.70;13.70;;;;;;6219591;23;19912;-93
2022/06/22 10:36:55;;;;;;;;;;;42.60;13.40;;;;;;6218424;23;19926;-93
2022/06/22 10:39:34;;;;;;;;;;;42.60;13.60;;;;;;6193659;23;19939;-93
2022/06/22 10:45:31;;;;;;;;;;;42.80;14.20;;;;;;6219517;23;19940;-94
2022/06/22 10:48:28;;;;;;;;;;;43.20;14.10;;;;;;6244630;23;19912;-92
2022/06/22 10:51:13;;;;;;;;;;;43.40;13.90;;;;;;6224071;23;19899;-92
2022/06/22 10:53:38;;;;;;;;;;;43.50;13.70;;;;;;6225507;23;19912;-91
2022/06/22 10:56:31;;;;;;;;;;;43.60;13.60;;;;;;6220095;23;19904;-93
2022/06/22 10:58:59;;;;;;;;;;;43.70;13.40;;;;;;6220487;23;19942;-92
2022/06/22 11:01:39;;;;;;;;;;;43.60;13.40;;;;;;6218333;23;19900;-91
2022/06/22 11:04:37;;;;;;;;;;;43.80;13.20;;;;;;6192238;23;19916;-90
2022/06/22 11:07:20;;;;;;;;;;;43.70;12.80;;;;;;6143198;23;19918;-91
2022/06/22 11:09:46;;;;;;;;;;;43.60;13.10;;;;;;6219861;23;19907;-91
2022/06/22 11:12:25;;;;;;;;;;;43.60;13.10;;;;;;6217573;23;19904;-89
2022/06/22 11:14:57;;;;;;;;;;;43.70;12.90;;;;;;6221677;23;19905;-91
2022/06/22 11:17:22;;;;;;;;;;;43.80;13.00;;;;;;6221977;23;19904;-96
2022/06/22 11:20:07;;;;;;;;;;;43.80;13.30;;;;;;6223618;23;19912;-92
2022/06/22 11:22:57;;;;;;;;;;;43.90;13.00;;;;;;6223882;23;19944;-92
2022/06/22 11:31:59;;;;;;;;;;;43.80;12.80;;;;;;6222796;23;19943;-91
2022/06/22 11:34:45;;;;;;;;;;;43.60;12.80;;;;;;6196155;23;19970;-95
2022/06/22 11:37:29;;;;;;;;;;;43.50;12.60;;;;;;6223150;23;19935;-93
2022/06/22 11:40:09;;;;;;;;;;;43.30;12.70;;;;;;6220714;23;19941;-95
2022/06/22 11:42:49;;;;;;;;;;;43.30;12.90;;;;;;6195525;23;19912;-93
2022/06/22 11:45:55;;;;;;;;;;;43.60;13.00;;;;;;6220180;23;19915;-90
2022/06/22 11:48:45;;;;;;;;;;;43.90;13.00;;;;;;6218630;23;19916;-92
2022/06/22 11:51:19;;;;;;;;;;;44.10;12.60;;;;;;6245638;23;19920;-93
2022/06/22 11:54:00;;;;;;;;;;;44.10;12.50;;;;;;6222427;23;19919;-92
2022/06/22 11:56:46;;;;;;;;;;;44.20;12.40;;;;;;6221280;23;19928;-94
2022/06/22 11:59:23;;;;;;;;;;;44.00;12.00;;;;;;6223744;23;19935;-94
2022/06/22 12:01:49;;;;;;;;;;;44.00;12.10;;;;;;6198570;23;19904;-94
2022/06/22 12:04:32;;;;;;;;;;;44.20;12.10;;;;;;6220919;23;19927;-94
2022/06/22 12:06:58;;;;;;;;;;;44.20;11.90;;;;;;6197644;23;20331;-92
2022/06/22 12:09:51;;;;;;;;;;;43.80;11.80;;;;;;6218103;23;19943;-91
2022/06/22 12:12:25;;;;;;;;;;;43.60;12.00;;;;;;6220042;23;19916;-91
2022/06/22 12:15:09;;;;;;;;;;;43.70;12.10;;;;;;6218790;23;19914;-93
2022/06/22 12:17:52;;;;;;;;;;;44.00;12.00;;;;;;6220726;23;19911;-92
2022/06/22 12:20:21;;;;;;;;;;;43.90;11.70;;;;;;6220996;23;19895;-92
2022/06/22 12:22:59;;;;;;;;;;;44.10;11.60;;;;;;6219684;23;20200;-91
2022/06/22 12:25:42;;;;;;;;;;;44.20;11.60;;;;;;6219591;23;20541;-90
2022/06/22 12:28:17;;;;;;;;;;;44.30;10.80;;;;;;6218819;23;19908;-92
2022/06/22 12:30:46;;;;;;;;;;;44.20;11.10;;;;;;6220005;23;20508;-91
2022/06/22 12:33:31;;;;;;;;;;;44.30;10.60;;;;;;6217723;23;19915;-90
2022/06/22 12:35:59;;;;;;;;;;;44.40;10.70;;;;;;6193372;23;19946;-91
2022/06/22 12:38:24;;;;;;;;;;;44.50;10.50;;;;;;6193929;23;20224;-91
2022/06/22 12:40:54;;;;;;;;;;;44.30;10.80;;;;;;6218125;23;19998;-91
2022/06/22 12:43:30;;;;;;;;;;;44.50;10.90;;;;;;6192891;23;20218;-92
2022/06/22 12:45:56;;;;;;;;;;;44.80;10.80;;;;;;6195032;23;20312;-91
2022/06/22 12:48:31;;;;;;;;;;;44.40;10.70;;;;;;6219603;23;19928;-92
2022/06/22 12:51:15;;;;;;;;;;;44.20;11.00;;;;;;6193737;23;20618;-92
2022/06/22 12:53:47;;;;;;;;;;;43.90;11.10;;;;;;6219944;23;19908;-93
2022/06/22 12:56:36;;;;;;;;;;;43.70;11.20;;;;;;6216981;23;19912;-91
2022/06/22 12:59:08;;;;;;;;;;;43.60;11.30;;;;;;6177724;23;19962;-90
2022/06/22 13:01:34;;;;;;;;;;;43.60;11.30;;;;;;6216879;23;20379;-90
2022/06/22 13:04:07;;;;;;;;;;;43.70;11.40;;;;;;6192831;23;19983;-93
2022/06/22 13:06:34;;;;;;;;;;;43.50;11.50;;;;;;6194298;23;19916;-92
2022/06/22 13:09:03;;;;;;;;;;;43.20;11.60;;;;;;6194102;23;19908;-92
2022/06/22 13:11:30;;;;;;;;;;;43.20;11.80;;;;;;6192683;23;19922;-93
2022/06/22 13:14:02;;;;;;;;;;;42.90;11.70;;;;;;6192897;23;19892;-95
2022/06/22 13:16:35;;;;;;;;;;;43.10;11.90;;;;;;6166650;23;19896;-93
2022/06/22 13:19:00;;;;;;;;;;;43.40;11.80;;;;;;6217062;23;20305;-93
2022/06/22 13:21:33;;;;;;;;;;;43.50;11.80;;;;;;6215704;23;20020;-94
2022/06/22 13:24:13;;;;;;;;;;;43.40;12.00;;;;;;6193105;23;19975;-95
2022/06/22 13:26:58;;;;;;;;;;;43.30;12.00;;;;;;6218331;23;19962;-93
2022/06/22 13:29:33;;;;;;;;;;;43.20;12.20;;;;;;6216387;23;19915;-93
2022/06/22 13:32:02;;;;;;;;;;;42.90;12.20;;;;;;6217422;23;19912;-93
2022/06/22 13:34:34;;;;;;;;;;;42.60;12.40;;;;;;6190837;23;19939;-93
2022/06/22 13:37:09;;;;;;;;;;;42.20;12.50;;;;;;6190804;23;20022;-93
2022/06/22 13:39:43;;;;;;;;;;;42.00;12.60;;;;;;6216584;23;19912;-93
2022/06/22 13:42:09;;;;;;;;;;;42.00;12.60;;;;;;6241836;23;19904;-93
2022/06/22 13:44:34;;;;;;;;;;;41.80;12.70;;;;;;6213804;23;19962;-91
2022/06/22 13:47:20;;;;;;;;;;;41.50;12.90;;;;;;6219133;23;19908;-95
2022/06/22 13:49:58;;;;;;;;;;;41.50;13.00;;;;;;6213228;23;20317;-91
2022/06/22 13:52:34;;;;;;;;;;;41.50;13.10;;;;;;6214603;23;19916;-94
2022/06/22 13:55:08;;;;;;;;;;;41.70;13.10;;;;;;6215472;23;19908;-93
2022/06/22 13:57:33;;;;;;;;;;;41.70;12.90;;;;;;6215763;23;19986;-93
2022/06/22 14:00:08;;;;;;;;;;;41.30;12.90;;;;;;6214883;23;19928;-93
2022/06/22 14:02:34;;;;;;;;;;;40.90;13.20;;;;;;6191204;23;19936;-94
2022/06/22 14:05:02;;;;;;;;;;;40.60;13.30;;;;;;6214320;23;20268;-94
2022/06/22 14:07:31;;;;;;;;;;;40.60;13.40;;;;;;6215611;23;20355;-92
2022/06/22 14:10:06;;;;;;;;;;;40.60;13.30;;;;;;6190902;23;19912;-93
2022/06/22 14:12:44;;;;;;;;;;;40.70;13.30;;;;;;6188825;23;19908;-92
2022/06/22 14:15:29;;;;;;;;;;;40.90;13.30;;;;;;6189702;23;19916;-92
2022/06/22 14:18:05;;;;;;;;;;;40.80;13.00;;;;;;6192123;23;19910;-95
2022/06/22 14:20:43;;;;;;;;;;;40.60;13.10;;;;;;6192717;23;19916;-94
2022/06/22 14:23:11;;;;;;;;;;;40.30;13.20;;;;;;6220430;23;20276;-93
2022/06/22 14:25:53;;;;;;;;;;;40.30;13.30;;;;;;6191152;23;19991;-90
2022/06/22 14:28:31;;;;;;;;;;;40.20;13.20;;;;;;6190159;23;19908;-90
2022/06/22 14:31:08;;;;;;;;;;;40.00;13.30;;;;;;6216094;23;19962;-91
2022/06/22 14:33:44;;;;;;;;;;;39.70;13.20;;;;;;6190725;23;19935;-91
2022/06/22 14:36:12;;;;;;;;;;;39.10;13.50;;;;;;6192302;23;19931;-93
2022/06/22 14:38:41;;;;;;;;;;;38.60;13.40;;;;;;6217974;23;19955;-95
2022/06/22 14:41:25;;;;;;;;;;;38.00;13.70;;;;;;6192318;23;19919;-92
2022/06/22 14:44:16;;;;;;;;;;;37.40;13.90;;;;;;6220338;23;19904;-93
2022/06/22 14:46:50;;;;;;;;;;;36.80;13.90;;;;;;6219484;23;19947;-91
2022/06/22 14:49:29;;;;;;;;;;;36.00;14.50;;;;;;6216231;23;19908;-91
2022/06/22 14:51:57;;;;;;;;;;;35.30;15.00;;;;;;6219323;23;19952;-91
2022/06/22 14:54:40;;;;;;;;;;;34.80;15.40;;;;;;6215884;23;19951;-92
2022/06/22 14:57:18;;;;;;;;;;;34.40;15.80;;;;;;6189640;23;19908;-89
2022/06/22 15:00:08;;;;;;;;;;;34.00;16.00;;;;;;6214130;23;19912;-90
2022/06/22 15:02:43;;;;;;;;;;;33.70;16.50;;;;;;6215018;23;19966;-91
2022/06/22 15:05:17;;;;;;;;;;;33.30;16.90;;;;;;6188923;23;19912;-89
2022/06/22 15:07:54;;;;;;;;;;;33.10;17.20;;;;;;6216031;23;20375;-90
2022/06/22 15:10:20;;;;;;;;;;;32.80;17.50;;;;;;6216096;23;20356;-91
2022/06/22 15:12:59;;;;;;;;;;;32.60;17.40;;;;;;6217306;23;19904;-90
2022/06/22 15:15:36;;;;;;;;;;;32.40;17.50;;;;;;6219403;23;19916;-93
2022/06/22 15:18:28;;;;;;;;;;;32.20;17.50;;;;;;6220302;23;19911;-93